Waskish, Minnesota
Current Conditions -  °F | °C
As of 12:13 PM on Thursday 30 Oct 2014 (Local Time) from KVWU Reporting Station
Overcast Overcast  
Wind Chill: 29°   Ceiling: 3200
Heat Index: 37°   Visibility: 10mi
Dew Point: 34°   Wind: 13mph
Humidity: 87%   Direction: 300°WNW
Pressure: 30.18"   Gusts: 18mph
Location:  48.16°N, 94.51°W
Report Text: KVWU 301713Z AUTO 30011G16KT 10SM SCT017 BKN032 OVC038 03/01 A3018 RMK AO2
Loading
Personal Weather Stations






























Interactive Weather Map
Tropical Storm Tracking
New forecast layout! Learn more

10-Day Weather Forecast

Advertisements
Track Severe Weather on mobile